createdAt,value
2017-12-14T00:02:22.864Z,4.30
2017-12-14T00:04:50.292Z,4.30
2017-12-14T00:07:17.693Z,4.30
2017-12-14T00:09:45.185Z,4.40
2017-12-14T00:12:13.361Z,4.40
2017-12-14T00:14:41.586Z,4.40
2017-12-14T00:17:08.997Z,4.40
2017-12-14T00:19:36.507Z,4.40
2017-12-14T00:22:03.941Z,4.40
2017-12-14T00:24:30.880Z,4.40
2017-12-14T00:26:58.300Z,4.40
2017-12-14T00:29:25.715Z,4.40
2017-12-14T00:31:53.154Z,4.40
2017-12-14T00:34:20.573Z,4.40
2017-12-14T00:36:48.034Z,4.40
2017-12-14T00:39:15.434Z,4.30
2017-12-14T00:41:42.853Z,4.30
2017-12-14T00:44:10.291Z,4.30
2017-12-14T00:46:37.706Z,4.30
2017-12-14T00:49:05.142Z,4.40
2017-12-14T00:51:32.546Z,4.40
2017-12-14T00:53:59.979Z,4.40
2017-12-14T00:56:27.435Z,4.50
2017-12-14T00:58:54.902Z,4.50
2017-12-14T01:01:22.368Z,4.50
2017-12-14T01:03:50.643Z,4.70
2017-12-14T01:06:18.856Z,4.80
2017-12-14T01:08:46.267Z,4.80
2017-12-14T01:11:13.708Z,4.90
2017-12-14T01:13:41.274Z,5.00
2017-12-14T01:16:08.734Z,5.00
2017-12-14T01:18:36.171Z,5.10
2017-12-14T01:21:04.388Z,5.20
2017-12-14T01:23:31.796Z,5.20
2017-12-14T01:25:59.317Z,5.30
2017-12-14T01:28:26.729Z,5.40
2017-12-14T01:30:54.154Z,5.40
2017-12-14T01:33:21.561Z,5.40
2017-12-14T01:35:48.985Z,5.40
2017-12-14T01:38:16.440Z,5.40
2017-12-14T01:40:43.915Z,5.40
2017-12-14T01:43:11.403Z,5.50
2017-12-14T01:45:38.823Z,5.40
2017-12-14T01:48:06.225Z,5.50
2017-12-14T01:50:33.635Z,5.40
2017-12-14T01:53:01.038Z,5.40
2017-12-14T01:55:29.210Z,5.40
2017-12-14T01:57:56.638Z,5.30
2017-12-14T02:00:24.056Z,5.30
2017-12-14T02:02:52.265Z,5.30
2017-12-14T02:05:19.687Z,5.30
2017-12-14T02:07:47.214Z,5.30
2017-12-14T02:10:14.681Z,5.30
2017-12-14T02:12:42.098Z,5.30
2017-12-14T02:15:10.292Z,5.40
2017-12-14T02:17:37.714Z,5.40
2017-12-14T02:20:05.174Z,5.40
2017-12-14T02:22:32.582Z,5.40
2017-12-14T02:25:00.001Z,5.30
2017-12-14T02:27:27.465Z,5.40
2017-12-14T02:29:55.638Z,5.40
2017-12-14T02:32:23.059Z,5.40
2017-12-14T02:34:50.490Z,5.40
2017-12-14T02:37:17.914Z,5.40
2017-12-14T02:39:45.342Z,5.40
2017-12-14T02:42:12.822Z,5.40
2017-12-14T02:44:40.241Z,5.30
2017-12-14T02:47:07.659Z,5.30
2017-12-14T02:49:35.082Z,5.30
2017-12-14T02:52:03.274Z,5.30
2017-12-14T02:54:31.482Z,5.30
2017-12-14T02:56:58.882Z,5.30
2017-12-14T02:59:26.316Z,5.30
2017-12-14T03:01:53.733Z,5.40
2017-12-14T03:04:21.154Z,5.40
2017-12-14T03:06:48.585Z,5.40
2017-12-14T03:09:16.038Z,5.40
2017-12-14T03:11:43.685Z,5.40
2017-12-14T03:14:11.162Z,5.40
2017-12-14T03:16:38.634Z,5.40
2017-12-14T03:19:06.046Z,5.30
2017-12-14T03:21:34.246Z,5.20
2017-12-14T03:24:02.446Z,5.20
2017-12-14T03:26:29.869Z,5.20
2017-12-14T03:28:57.282Z,5.10
2017-12-14T03:31:24.756Z,5.10
2017-12-14T03:33:52.289Z,5.10
2017-12-14T03:36:19.722Z,5.00
2017-12-14T03:38:47.186Z,5.00
2017-12-14T03:41:14.636Z,5.00
2017-12-14T03:43:42.935Z,5.00
2017-12-14T03:46:10.406Z,5.00
2017-12-14T03:48:37.848Z,5.00
2017-12-14T03:51:05.325Z,5.00
2017-12-14T03:53:32.758Z,5.00
2017-12-14T03:56:01.011Z,4.90
2017-12-14T03:58:28.460Z,4.90
2017-12-14T04:00:55.898Z,4.90
2017-12-14T04:03:24.110Z,4.90
2017-12-14T04:05:51.521Z,4.90
2017-12-14T04:08:18.946Z,4.80
2017-12-14T04:10:46.368Z,4.80
2017-12-14T04:13:13.797Z,4.90
2017-12-14T04:15:41.290Z,4.90
2017-12-14T04:18:08.775Z,4.90
2017-12-14T04:20:36.303Z,4.90
2017-12-14T04:23:03.714Z,4.90
2017-12-14T04:25:31.234Z,4.90
2017-12-14T04:27:58.677Z,5.00
2017-12-14T04:30:26.847Z,5.00
2017-12-14T04:32:54.266Z,5.00
2017-12-14T04:35:21.760Z,5.00
2017-12-14T04:37:49.175Z,5.00
2017-12-14T04:40:17.382Z,5.00
2017-12-14T04:42:44.853Z,5.00
2017-12-14T04:45:12.278Z,5.00
2017-12-14T04:47:40.480Z,5.00
2017-12-14T04:50:08.667Z,5.00
2017-12-14T04:52:36.875Z,5.00
2017-12-14T04:55:04.285Z,5.00
2017-12-14T04:57:31.707Z,5.00
2017-12-14T04:59:59.148Z,5.00
2017-12-14T05:02:27.373Z,5.00
2017-12-14T05:04:54.795Z,5.00
2017-12-14T05:07:22.214Z,5.00
2017-12-14T05:09:49.657Z,5.00
2017-12-14T05:12:17.119Z,5.00
2017-12-14T05:14:45.329Z,5.00
2017-12-14T05:17:12.746Z,5.00
2017-12-14T05:19:40.158Z,5.00
2017-12-14T05:22:07.791Z,5.00
2017-12-14T05:24:35.212Z,5.00
2017-12-14T05:27:02.628Z,4.90
2017-12-14T05:29:30.865Z,4.90
2017-12-14T05:31:58.254Z,4.90
2017-12-14T05:34:25.678Z,4.90
2017-12-14T05:36:53.111Z,4.90
2017-12-14T05:39:21.286Z,4.90
2017-12-14T05:41:48.819Z,4.90
2017-12-14T05:44:16.503Z,4.90
2017-12-14T05:46:43.965Z,4.90
2017-12-14T05:49:11.375Z,4.90
2017-12-14T05:51:38.926Z,5.00
2017-12-14T05:54:06.368Z,4.90
2017-12-14T05:56:33.788Z,5.00
2017-12-14T05:59:01.978Z,5.00
2017-12-14T06:01:29.422Z,5.00
2017-12-14T06:03:56.851Z,5.00
2017-12-14T06:06:24.265Z,5.00
2017-12-14T06:08:51.729Z,5.00
2017-12-14T06:11:19.114Z,5.10
2017-12-14T06:13:46.630Z,5.00
2017-12-14T06:16:14.093Z,5.00
2017-12-14T06:18:41.579Z,5.00
2017-12-14T06:21:08.990Z,5.00
2017-12-14T06:23:36.505Z,5.00
2017-12-14T06:26:03.910Z,5.00
2017-12-14T06:28:31.346Z,5.00
2017-12-14T06:30:59.630Z,5.00
2017-12-14T06:33:27.036Z,5.00
2017-12-14T06:35:55.977Z,5.00
2017-12-14T06:38:23.407Z,5.00
2017-12-14T06:40:50.822Z,5.00
2017-12-14T06:43:19.059Z,5.00
2017-12-14T06:45:46.515Z,5.00
2017-12-14T06:48:13.901Z,5.00
2017-12-14T06:50:41.328Z,4.90
2017-12-14T06:53:08.802Z,5.00
2017-12-14T06:55:36.242Z,4.90
2017-12-14T06:58:04.446Z,4.90
2017-12-14T07:00:31.871Z,4.90
2017-12-14T07:03:11.886Z,4.80
2017-12-14T07:05:39.355Z,4.80
2017-12-14T07:08:06.773Z,4.90
2017-12-14T07:10:34.292Z,4.80
2017-12-14T07:13:01.726Z,4.80
2017-12-14T07:15:30.051Z,4.80
2017-12-14T07:17:57.450Z,4.80
2017-12-14T07:20:24.886Z,4.70
2017-12-14T07:22:52.354Z,4.70
2017-12-14T07:25:20.525Z,4.60
2017-12-14T07:27:47.950Z,4.60
2017-12-14T07:30:15.361Z,4.50
2017-12-14T07:32:42.846Z,4.40
2017-12-14T07:35:11.066Z,4.20
2017-12-14T07:37:38.494Z,4.20
2017-12-14T07:40:05.904Z,4.10
2017-12-14T07:42:45.315Z,4.10
2017-12-14T07:45:24.812Z,4.00
2017-12-14T07:48:00.158Z,4.00
2017-12-14T07:50:27.545Z,4.00
2017-12-14T07:52:54.961Z,4.00
2017-12-14T07:55:22.438Z,4.00
2017-12-14T07:57:49.896Z,4.00
2017-12-14T08:00:18.070Z,4.10
2017-12-14T08:02:45.485Z,4.10
2017-12-14T08:05:12.911Z,4.10
2017-12-14T08:07:40.329Z,4.10
2017-12-14T08:10:07.738Z,4.10
2017-12-14T08:12:35.219Z,4.10
2017-12-14T08:15:02.626Z,4.10
2017-12-14T08:17:30.057Z,4.10
2017-12-14T08:19:57.454Z,4.10
2017-12-14T08:22:24.882Z,4.10
2017-12-14T08:24:52.299Z,4.10
2017-12-14T08:27:19.730Z,4.00
2017-12-14T08:29:47.882Z,3.80
2017-12-14T08:32:16.065Z,3.80
2017-12-14T08:34:44.246Z,3.70
2017-12-14T08:37:12.473Z,3.70
2017-12-14T08:39:40.699Z,3.70
2017-12-14T08:42:08.105Z,3.60
2017-12-14T08:44:35.519Z,3.60
2017-12-14T08:47:02.930Z,3.60
2017-12-14T08:49:31.101Z,3.50
2017-12-14T08:51:58.626Z,3.50
2017-12-14T08:54:26.090Z,3.50
2017-12-14T08:56:53.498Z,3.50
2017-12-14T08:59:20.915Z,3.50
2017-12-14T09:01:48.318Z,3.40
2017-12-14T09:04:15.726Z,3.40
2017-12-14T09:06:43.936Z,3.40
2017-12-14T09:09:11.406Z,3.40
2017-12-14T09:11:38.818Z,3.40
2017-12-14T09:14:06.225Z,3.40
2017-12-14T09:16:34.426Z,3.40
2017-12-14T09:19:01.895Z,3.30
2017-12-14T09:21:29.373Z,3.40
2017-12-14T09:23:57.535Z,3.30
2017-12-14T09:26:25.738Z,3.20
2017-12-14T09:28:53.142Z,3.20
2017-12-14T09:31:20.662Z,3.20
2017-12-14T09:33:48.871Z,3.30
2017-12-14T09:36:16.318Z,3.30
2017-12-14T09:38:44.665Z,3.30
2017-12-14T09:41:12.055Z,3.30
2017-12-14T09:43:40.263Z,3.30
2017-12-14T09:46:08.450Z,3.30
2017-12-14T09:48:36.662Z,3.40
2017-12-14T09:51:04.092Z,3.40
2017-12-14T09:53:32.265Z,3.50
2017-12-14T09:55:59.682Z,3.40
2017-12-14T09:58:27.173Z,3.50
2017-12-14T10:00:54.588Z,3.50
2017-12-14T10:03:22.816Z,3.90
2017-12-14T10:05:50.402Z,3.90
2017-12-14T10:08:18.642Z,3.90
2017-12-14T10:10:46.079Z,3.90
2017-12-14T10:13:13.519Z,4.00
2017-12-14T10:15:41.737Z,4.30
2017-12-14T10:18:09.244Z,4.30
2017-12-14T10:20:36.705Z,4.50
2017-12-14T10:23:04.230Z,4.50
2017-12-14T10:25:31.648Z,4.60
2017-12-14T10:27:59.073Z,4.50
2017-12-14T10:30:26.507Z,4.50
2017-12-14T10:32:53.943Z,4.60
2017-12-14T10:35:21.405Z,4.60
2017-12-14T10:37:49.601Z,4.80
2017-12-14T10:40:17.081Z,4.80
2017-12-14T10:42:44.534Z,4.90
2017-12-14T10:45:12.004Z,4.90
2017-12-14T10:47:39.526Z,5.00
2017-12-14T10:50:07.726Z,5.20
2017-12-14T10:52:35.966Z,5.30
2017-12-14T10:55:03.384Z,5.20
2017-12-14T10:57:31.625Z,5.90
2017-12-14T10:59:59.062Z,5.80
2017-12-14T11:02:26.532Z,6.10
2017-12-14T11:04:53.998Z,6.00
2017-12-14T11:07:22.185Z,5.60
2017-12-14T11:09:49.601Z,5.60
2017-12-14T11:12:17.046Z,5.50
2017-12-14T11:14:44.593Z,5.70
2017-12-14T11:17:12.809Z,5.80
2017-12-14T11:19:40.343Z,5.70
2017-12-14T11:22:09.557Z,5.30
2017-12-14T11:24:37.042Z,5.30
2017-12-14T11:27:04.510Z,5.20
2017-12-14T11:29:31.922Z,5.10
2017-12-14T11:31:59.346Z,4.90
2017-12-14T11:34:26.823Z,4.90
2017-12-14T11:36:54.974Z,4.80
2017-12-14T11:39:23.166Z,4.80
2017-12-14T11:41:51.381Z,4.70
2017-12-14T11:44:18.806Z,4.70
2017-12-14T11:46:46.194Z,4.70
2017-12-14T11:49:14.382Z,4.60
2017-12-14T11:51:41.799Z,4.60
2017-12-14T11:54:09.222Z,4.60
2017-12-14T11:56:36.625Z,4.50
2017-12-14T11:59:04.063Z,4.40
2017-12-14T12:01:31.533Z,4.40
2017-12-14T12:03:58.955Z,4.40
2017-12-14T12:06:26.371Z,4.40
2017-12-14T12:08:53.786Z,4.40
2017-12-14T12:11:21.219Z,4.40
2017-12-14T12:13:48.637Z,4.40
2017-12-14T12:16:16.065Z,4.40
2017-12-14T12:18:43.488Z,4.40
2017-12-14T12:21:11.722Z,4.50
2017-12-14T12:23:39.284Z,4.50
2017-12-14T12:26:06.678Z,4.50
2017-12-14T12:28:34.127Z,4.50
2017-12-14T12:31:01.586Z,4.50
2017-12-14T12:33:28.969Z,4.40
2017-12-14T12:35:56.387Z,4.40
2017-12-14T12:38:24.604Z,4.30
2017-12-14T12:40:52.040Z,4.30
2017-12-14T12:43:20.255Z,4.30
2017-12-14T12:45:47.671Z,4.30
2017-12-14T12:48:15.093Z,4.30
2017-12-14T12:50:42.578Z,4.30
2017-12-14T12:53:09.965Z,4.20
2017-12-14T12:55:37.374Z,4.20
2017-12-14T12:58:05.564Z,4.20
2017-12-14T13:00:33.738Z,4.20
2017-12-14T13:03:01.918Z,4.20
2017-12-14T13:05:29.334Z,4.20
2017-12-14T13:07:56.836Z,4.30
2017-12-14T13:10:24.350Z,4.30
2017-12-14T13:12:52.565Z,4.20
2017-12-14T13:15:19.973Z,4.30
2017-12-14T13:17:47.378Z,4.30
2017-12-14T13:20:14.790Z,4.30
2017-12-14T13:22:42.225Z,4.30
2017-12-14T13:25:10.025Z,4.30
2017-12-14T13:27:37.415Z,4.30
2017-12-14T13:30:04.838Z,4.30
2017-12-14T13:32:32.298Z,4.30
2017-12-14T13:34:59.710Z,4.30
2017-12-14T13:37:27.158Z,4.30
2017-12-14T13:39:54.613Z,4.20
2017-12-14T13:42:22.026Z,4.20
2017-12-14T13:44:49.446Z,4.20
2017-12-14T13:47:16.918Z,4.20
2017-12-14T13:49:44.330Z,4.20
2017-12-14T13:52:11.774Z,4.20
2017-12-14T13:54:39.219Z,4.20
2017-12-14T13:57:06.617Z,4.10
2017-12-14T13:59:34.022Z,4.10
2017-12-14T14:02:02.231Z,4.10
2017-12-14T14:04:29.646Z,4.10
2017-12-14T14:06:57.078Z,4.10
2017-12-14T14:09:25.270Z,4.10
2017-12-14T14:11:52.723Z,4.10
2017-12-14T14:14:20.137Z,4.10
2017-12-14T14:16:47.590Z,4.00
2017-12-14T14:19:15.014Z,4.00
2017-12-14T14:21:43.419Z,4.00
2017-12-14T14:24:10.934Z,4.00
2017-12-14T14:26:38.370Z,3.90
2017-12-14T14:29:05.762Z,4.00
2017-12-14T14:31:33.198Z,3.90
2017-12-14T14:34:00.717Z,4.00
2017-12-14T14:36:28.133Z,4.00
2017-12-14T14:38:55.612Z,3.90
2017-12-14T14:41:23.025Z,3.90
2017-12-14T14:43:50.439Z,3.90
2017-12-14T14:46:17.883Z,4.00
2017-12-14T14:48:46.084Z,3.90
2017-12-14T14:51:13.494Z,3.90
2017-12-14T14:53:40.948Z,4.00
2017-12-14T14:56:08.366Z,3.90
2017-12-14T14:58:36.639Z,4.00
2017-12-14T15:01:04.061Z,3.90
2017-12-14T15:03:31.473Z,3.90
2017-12-14T15:05:58.901Z,3.90
2017-12-14T15:08:26.310Z,4.00
2017-12-14T15:10:53.749Z,4.00
2017-12-14T15:13:21.202Z,4.00
2017-12-14T15:15:49.367Z,4.00
2017-12-14T15:18:17.540Z,4.00
2017-12-14T15:20:45.714Z,4.00
2017-12-14T15:23:13.914Z,3.90
2017-12-14T15:25:41.318Z,3.90
2017-12-14T15:28:08.737Z,3.80
2017-12-14T15:30:36.146Z,3.70
2017-12-14T15:33:03.590Z,3.70
2017-12-14T15:35:31.770Z,3.60
2017-12-14T15:37:59.946Z,3.60
2017-12-14T15:40:28.125Z,3.60
2017-12-14T15:42:56.302Z,3.70
2017-12-14T15:45:23.726Z,3.70
2017-12-14T15:47:51.139Z,3.60
2017-12-14T15:50:18.562Z,3.70
2017-12-14T15:52:46.021Z,3.60
2017-12-14T15:55:13.448Z,3.60
2017-12-14T15:57:40.865Z,3.60
2017-12-14T16:00:08.278Z,3.60
2017-12-14T16:02:35.803Z,3.60
2017-12-14T16:05:03.995Z,3.50
2017-12-14T16:07:31.394Z,3.50
2017-12-14T16:09:58.826Z,3.50
2017-12-14T16:12:26.277Z,3.50
2017-12-14T16:14:53.694Z,3.60
2017-12-14T16:17:21.106Z,3.50
2017-12-14T16:19:49.273Z,3.50
2017-12-14T16:22:17.522Z,3.50
2017-12-14T16:24:44.926Z,3.50
2017-12-14T16:27:12.435Z,3.40
2017-12-14T16:29:39.910Z,3.40
2017-12-14T16:32:07.351Z,3.30
2017-12-14T16:34:34.769Z,3.30
2017-12-14T16:37:02.196Z,3.30
2017-12-14T16:39:29.670Z,3.30
2017-12-14T16:41:57.150Z,3.30
2017-12-14T16:44:25.310Z,3.30
2017-12-14T16:46:53.627Z,3.40
2017-12-14T16:49:21.779Z,3.40
2017-12-14T16:51:49.966Z,3.40
2017-12-14T16:54:18.181Z,3.40
2017-12-14T16:56:46.340Z,3.40
2017-12-14T16:59:14.521Z,3.40
2017-12-14T17:01:42.740Z,3.30
2017-12-14T17:04:10.205Z,3.30
2017-12-14T17:06:37.623Z,3.40
2017-12-14T17:09:05.062Z,3.40
2017-12-14T17:11:32.474Z,3.40
2017-12-14T17:14:00.670Z,3.40
2017-12-14T17:16:28.842Z,3.40
2017-12-14T17:18:56.249Z,3.40
2017-12-14T17:21:23.673Z,3.50
2017-12-14T17:23:51.134Z,3.50
2017-12-14T17:26:18.566Z,3.60
2017-12-14T17:28:45.990Z,3.50
2017-12-14T17:31:13.397Z,3.50
2017-12-14T17:33:40.810Z,3.60
2017-12-14T17:36:08.229Z,3.60
2017-12-14T17:38:35.805Z,3.60
2017-12-14T17:41:03.198Z,3.70
2017-12-14T17:43:30.736Z,3.70
2017-12-14T17:45:58.906Z,3.80
2017-12-14T17:48:27.078Z,3.90
2017-12-14T17:50:55.262Z,3.90
2017-12-14T17:53:23.446Z,3.90
2017-12-14T17:55:51.625Z,3.90
2017-12-14T17:58:19.811Z,3.90
2017-12-14T18:00:48.020Z,3.90
2017-12-14T18:03:16.223Z,3.90
2017-12-14T18:05:43.693Z,3.90
2017-12-14T18:08:11.114Z,3.90
2017-12-14T18:10:38.621Z,3.90
2017-12-14T18:13:06.042Z,3.90
2017-12-14T18:15:33.471Z,3.90
2017-12-14T18:18:00.912Z,3.90
2017-12-14T18:20:28.412Z,3.90
2017-12-14T18:22:55.814Z,3.80
2017-12-14T18:25:23.339Z,3.90
2017-12-14T18:27:50.754Z,3.80
2017-12-14T18:30:18.189Z,3.90
2017-12-14T18:32:45.593Z,3.90
2017-12-14T18:35:13.026Z,3.90
2017-12-14T18:37:40.482Z,3.90
2017-12-14T18:40:08.667Z,3.90
2017-12-14T18:42:36.077Z,3.90
2017-12-14T18:45:04.250Z,3.90
2017-12-14T18:47:31.671Z,3.90
2017-12-14T18:49:59.915Z,3.90
2017-12-14T18:52:27.319Z,3.90
2017-12-14T18:54:55.554Z,3.80
2017-12-14T18:57:22.972Z,3.80
2017-12-14T18:59:51.159Z,3.70
2017-12-14T19:02:19.351Z,3.70
2017-12-14T19:04:47.529Z,3.70
2017-12-14T19:07:15.748Z,3.60
2017-12-14T19:09:43.201Z,3.60
2017-12-14T19:12:10.613Z,3.50
2017-12-14T19:14:38.039Z,3.50
2017-12-14T19:17:05.443Z,3.50
2017-12-14T19:19:32.885Z,3.50
2017-12-14T19:22:00.344Z,3.50
2017-12-14T19:24:27.750Z,3.50
2017-12-14T19:26:55.166Z,3.50
2017-12-14T19:29:23.345Z,3.40
2017-12-14T19:31:51.530Z,3.40
2017-12-14T19:34:19.743Z,3.30
2017-12-14T19:36:47.206Z,3.30
2017-12-14T19:39:14.693Z,3.30
2017-12-14T19:41:42.106Z,3.30
2017-12-14T19:44:10.282Z,3.20
2017-12-14T19:46:37.798Z,3.20
2017-12-14T19:49:05.292Z,3.20
2017-12-14T19:51:32.694Z,3.20
2017-12-14T19:54:00.130Z,3.20
2017-12-14T19:56:27.534Z,3.20
2017-12-14T19:58:55.047Z,3.10
2017-12-14T20:01:22.534Z,3.20
2017-12-14T20:03:49.958Z,3.20
2017-12-14T20:06:18.133Z,3.20
2017-12-14T20:08:46.304Z,3.20
2017-12-14T20:11:13.816Z,3.20
2017-12-14T20:13:41.245Z,3.20
2017-12-14T20:16:08.757Z,3.20
2017-12-14T20:18:36.174Z,3.20
2017-12-14T20:21:03.586Z,3.20
2017-12-14T20:23:30.998Z,3.20
2017-12-14T20:25:58.434Z,3.20
2017-12-14T20:28:25.830Z,3.20
2017-12-14T20:30:53.245Z,3.30
2017-12-14T20:33:21.450Z,3.30
2017-12-14T20:35:48.874Z,3.30
2017-12-14T20:38:16.290Z,3.30
2017-12-14T20:40:43.709Z,3.30
2017-12-14T20:43:11.138Z,3.20
2017-12-14T20:45:38.546Z,3.30
2017-12-14T20:48:06.774Z,3.30
2017-12-14T20:50:34.191Z,3.30
2017-12-14T20:53:01.669Z,3.30
2017-12-14T20:55:30.632Z,3.20
2017-12-14T20:57:58.056Z,3.20
2017-12-14T21:00:25.559Z,3.30
2017-12-14T21:02:53.052Z,3.30
2017-12-14T21:05:20.465Z,3.30
2017-12-14T21:07:48.685Z,3.30
2017-12-14T21:10:16.095Z,3.30
2017-12-14T21:12:43.558Z,3.30
2017-12-14T21:15:10.926Z,3.40
2017-12-14T21:17:38.355Z,3.30
2017-12-14T21:20:05.765Z,3.30
2017-12-14T21:22:33.169Z,3.30
2017-12-14T21:25:00.597Z,3.20
2017-12-14T21:27:28.037Z,3.20
2017-12-14T21:29:55.429Z,3.20
2017-12-14T21:32:22.838Z,3.20
2017-12-14T21:34:51.021Z,3.20
2017-12-14T21:37:19.219Z,3.20
2017-12-14T21:39:46.710Z,3.20
2017-12-14T21:42:14.139Z,3.20
2017-12-14T21:44:41.545Z,3.10
2017-12-14T21:47:08.953Z,3.10
2017-12-14T21:49:36.365Z,3.10
2017-12-14T21:52:03.870Z,3.10
2017-12-14T21:54:31.293Z,3.00
2017-12-14T21:56:59.513Z,3.00
2017-12-14T21:59:26.969Z,3.00
2017-12-14T22:01:54.456Z,3.00
2017-12-14T22:04:21.843Z,3.00
2017-12-14T22:06:49.246Z,3.00
2017-12-14T22:09:17.429Z,3.00
2017-12-14T22:11:45.644Z,3.00
2017-12-14T22:14:13.803Z,3.00
2017-12-14T22:16:41.991Z,3.00
2017-12-14T22:19:10.160Z,3.00
2017-12-14T22:21:37.653Z,2.90
2017-12-14T22:24:05.083Z,2.90
2017-12-14T22:26:32.515Z,2.90
2017-12-14T22:28:59.925Z,2.90
2017-12-14T22:31:28.864Z,2.90
2017-12-14T22:33:57.034Z,2.90
2017-12-14T22:36:25.237Z,3.00
2017-12-14T22:38:52.649Z,2.90
2017-12-14T22:41:20.086Z,3.00
2017-12-14T22:43:47.567Z,3.00
2017-12-14T22:46:15.032Z,2.90
2017-12-14T22:48:43.555Z,3.00
2017-12-14T22:51:11.766Z,3.00
2017-12-14T22:53:39.179Z,3.00
2017-12-14T22:56:06.635Z,3.00
2017-12-14T22:58:34.104Z,3.10
2017-12-14T23:01:01.522Z,3.10
2017-12-14T23:03:29.034Z,3.10
2017-12-14T23:05:56.446Z,3.20
2017-12-14T23:08:23.863Z,3.20
2017-12-14T23:10:52.081Z,3.10
2017-12-14T23:13:19.586Z,3.10
2017-12-14T23:15:47.005Z,3.20
2017-12-14T23:18:14.418Z,3.20
2017-12-14T23:20:41.830Z,3.20
2017-12-14T23:23:09.252Z,3.10
2017-12-14T23:25:36.647Z,3.20
2017-12-14T23:28:04.813Z,3.10
2017-12-14T23:30:32.230Z,3.10
2017-12-14T23:32:59.633Z,3.10
2017-12-14T23:35:27.085Z,3.20
2017-12-14T23:37:54.494Z,3.20
2017-12-14T23:40:21.903Z,3.20
2017-12-14T23:42:49.314Z,3.30
2017-12-14T23:45:16.839Z,3.30
2017-12-14T23:47:44.237Z,3.30
2017-12-14T23:50:11.678Z,3.40
2017-12-14T23:52:39.143Z,3.40
2017-12-14T23:55:06.611Z,3.40
2017-12-14T23:57:34.013Z,3.50
